Time;durP1;ratioP1;P1;durP2;ratioP2;P2;SDS_P1;SDS_P2;PMS_P1;PMS_P2;Temp;Humidity;BMP_temperature;BMP_pressure;BME280_temperature;BME280_humidity;BME280_pressure;Samples;Min_cycle;Max_cycle;Signal;HPM_P1;HPM_P2
2023/06/17 00:00:48;;;;;;;11.70;7.32;;;;;;;;;;5003031;28;20549;-64
2023/06/17 00:03:14;;;;;;;13.52;7.85;;;;;;;;;;5002268;28;20041;-63
2023/06/17 00:05:41;;;;;;;12.23;7.63;;;;;;;;;;5002108;28;20439;-64
2023/06/17 00:08:08;;;;;;;12.88;7.80;;;;;;;;;;5001955;28;20367;-64
2023/06/17 00:10:35;;;;;;;13.05;7.30;;;;;;;;;;5002518;28;20565;-62
2023/06/17 00:13:02;;;;;;;11.75;7.15;;;;;;;;;;4998731;28;20444;-63
2023/06/17 00:15:32;;;;;;;12.43;7.07;;;;;;;;;;5019894;28;20127;-62
2023/06/17 00:18:00;;;;;;;12.13;7.70;;;;;;;;;;5020343;28;20790;-63
2023/06/17 00:20:27;;;;;;;12.90;7.50;;;;;;;;;;5018502;28;20061;-63
2023/06/17 00:22:54;;;;;;;16.20;7.72;;;;;;;;;;5019673;28;20911;-63
2023/06/17 00:25:20;;;;;;;12.02;6.82;;;;;;;;;;5019712;28;20064;-62
2023/06/17 00:27:47;;;;;;;10.95;6.82;;;;;;;;;;5018929;28;20087;-64
2023/06/17 00:30:14;;;;;;;12.73;7.50;;;;;;;;;;5001268;28;20821;-64
2023/06/17 00:32:41;;;;;;;10.73;6.50;;;;;;;;;;5018777;28;20131;-64
2023/06/17 00:35:08;;;;;;;12.07;7.85;;;;;;;;;;4993220;28;20049;-63
2023/06/17 00:37:35;;;;;;;12.15;6.65;;;;;;;;;;5001339;28;20030;-63
2023/06/17 00:40:05;;;;;;;11.73;7.15;;;;;;;;;;5020497;28;20033;-60
2023/06/17 00:42:32;;;;;;;10.02;6.45;;;;;;;;;;5002691;28;20045;-62
2023/06/17 00:44:59;;;;;;;12.07;6.97;;;;;;;;;;5015788;28;20362;-62
2023/06/17 00:47:25;;;;;;;12.60;6.90;;;;;;;;;;5009288;28;20033;-63
2023/06/17 00:49:53;;;;;;;11.85;7.47;;;;;;;;;;5009699;28;20083;-64
2023/06/17 00:52:20;;;;;;;13.27;7.93;;;;;;;;;;5008235;28;20048;-63
2023/06/17 00:54:47;;;;;;;10.65;6.53;;;;;;;;;;5008357;28;20492;-63
2023/06/17 00:57:14;;;;;;;11.63;6.90;;;;;;;;;;5009353;28;20394;-62
2023/06/17 00:59:44;;;;;;;11.48;6.85;;;;;;;;;;5007317;28;20059;-63
2023/06/17 01:02:13;;;;;;;12.85;6.53;;;;;;;;;;5009237;28;20108;-61
2023/06/17 01:04:42;;;;;;;10.60;6.38;;;;;;;;;;5008091;28;20041;-63
2023/06/17 01:07:22;;;;;;;10.38;6.68;;;;;;;;;;5008341;28;20451;-62
2023/06/17 01:09:51;;;;;;;11.57;6.72;;;;;;;;;;5007229;28;20053;-64
2023/06/17 01:12:18;;;;;;;10.60;6.13;;;;;;;;;;5008012;28;20402;-60
2023/06/17 01:14:49;;;;;;;11.25;6.13;;;;;;;;;;5001511;28;20498;-62
2023/06/17 01:17:17;;;;;;;9.23;5.55;;;;;;;;;;5009211;28;20056;-60
2023/06/17 01:19:48;;;;;;;9.02;5.43;;;;;;;;;;5004021;28;20041;-63
2023/06/17 01:22:15;;;;;;;12.27;5.70;;;;;;;;;;4989707;28;20398;-62
2023/06/17 01:24:43;;;;;;;11.48;5.30;;;;;;;;;;5007937;28;20046;-64
2023/06/17 01:27:11;;;;;;;11.10;5.13;;;;;;;;;;5008366;28;20429;-63
2023/06/17 01:29:38;;;;;;;9.00;4.57;;;;;;;;;;4988585;28;20145;-63
2023/06/17 01:32:08;;;;;;;7.68;4.50;;;;;;;;;;5010730;28;20436;-63
2023/06/17 01:34:35;;;;;;;10.23;5.40;;;;;;;;;;5009146;28;20627;-63
2023/06/17 01:37:04;;;;;;;7.53;4.38;;;;;;;;;;5007136;28;20438;-63
2023/06/17 01:39:31;;;;;;;7.43;4.63;;;;;;;;;;5007035;28;20045;-61
2023/06/17 01:41:58;;;;;;;8.30;4.22;;;;;;;;;;5008831;28;20125;-62
2023/06/17 01:44:25;;;;;;;8.45;4.28;;;;;;;;;;5008083;28;20472;-63
2023/06/17 01:46:52;;;;;;;6.78;3.83;;;;;;;;;;5008573;28;20614;-62
2023/06/17 01:49:19;;;;;;;7.68;4.13;;;;;;;;;;5007732;28;20155;-63
2023/06/17 01:51:45;;;;;;;8.15;4.45;;;;;;;;;;5007041;28;20044;-63
2023/06/17 01:54:12;;;;;;;8.63;4.85;;;;;;;;;;5007198;28;20052;-63
2023/06/17 01:56:39;;;;;;;7.43;4.28;;;;;;;;;;5007699;28;20060;-63
2023/06/17 01:59:05;;;;;;;8.70;4.45;;;;;;;;;;5008355;28;20033;-62
2023/06/17 02:01:32;;;;;;;7.63;3.55;;;;;;;;;;5006736;28;20057;-63
2023/06/17 02:03:59;;;;;;;7.70;4.40;;;;;;;;;;5007692;28;20128;-60
2023/06/17 02:06:25;;;;;;;6.00;3.60;;;;;;;;;;5008283;28;20167;-63
2023/06/17 02:08:53;;;;;;;6.85;3.58;;;;;;;;;;5009226;28;20075;-68
2023/06/17 02:11:19;;;;;;;6.25;3.42;;;;;;;;;;5004583;28;20060;-67
2023/06/17 02:13:46;;;;;;;6.20;3.53;;;;;;;;;;5009830;28;20985;-64
2023/06/17 02:16:13;;;;;;;6.20;3.20;;;;;;;;;;5009253;28;20038;-67
2023/06/17 02:18:39;;;;;;;8.27;3.50;;;;;;;;;;5003925;28;20067;-67
2023/06/17 02:21:06;;;;;;;11.50;3.40;;;;;;;;;;4988312;28;20040;-66
2023/06/17 02:23:35;;;;;;;8.55;3.30;;;;;;;;;;4993001;28;20050;-65
2023/06/17 02:26:02;;;;;;;7.13;3.60;;;;;;;;;;4998590;28;20113;-64
2023/06/17 02:28:30;;;;;;;5.82;3.05;;;;;;;;;;4990781;28;20042;-65
2023/06/17 02:30:56;;;;;;;5.22;2.97;;;;;;;;;;4980895;28;20821;-65
2023/06/17 02:33:23;;;;;;;6.22;3.45;;;;;;;;;;4997721;28;20084;-64
2023/06/17 02:35:50;;;;;;;8.13;3.78;;;;;;;;;;5000437;28;20470;-65
2023/06/17 02:38:17;;;;;;;8.70;3.47;;;;;;;;;;4999128;28;20038;-65
2023/06/17 02:40:44;;;;;;;7.78;3.05;;;;;;;;;;4997465;28;20046;-64
2023/06/17 02:43:10;;;;;;;11.55;3.13;;;;;;;;;;4994509;28;20045;-65
2023/06/17 02:45:37;;;;;;;11.32;3.30;;;;;;;;;;4993700;28;20060;-65
2023/06/17 02:48:04;;;;;;;12.02;3.10;;;;;;;;;;4998527;28;20080;-64
2023/06/17 02:50:30;;;;;;;10.02;3.30;;;;;;;;;;4994531;28;20050;-63
2023/06/17 02:52:57;;;;;;;6.97;3.10;;;;;;;;;;4994718;28;20126;-66
2023/06/17 02:55:27;;;;;;;6.45;2.90;;;;;;;;;;4998493;28;20203;-65
2023/06/17 02:57:54;;;;;;;6.65;2.78;;;;;;;;;;5017336;28;20048;-64
2023/06/17 03:00:21;;;;;;;7.50;3.03;;;;;;;;;;4985924;28;20033;-64
2023/06/17 03:02:48;;;;;;;8.15;3.08;;;;;;;;;;5020151;28;20048;-65
2023/06/17 03:05:16;;;;;;;12.10;2.88;;;;;;;;;;5019589;28;20041;-65
2023/06/17 03:07:46;;;;;;;8.07;2.92;;;;;;;;;;5010451;28;20041;-65
2023/06/17 03:10:32;;;;;;;5.90;2.70;;;;;;;;;;4976339;28;20054;-65
2023/06/17 03:13:01;;;;;;;5.35;2.42;;;;;;;;;;4963371;28;20620;-65
2023/06/17 03:15:27;;;;;;;4.95;2.50;;;;;;;;;;4956591;28;20038;-65
2023/06/17 03:17:55;;;;;;;8.02;2.88;;;;;;;;;;4959918;28;20051;-65
2023/06/17 03:20:28;;;;;;;6.07;2.40;;;;;;;;;;4959427;28;20038;-65
2023/06/17 03:22:55;;;;;;;6.50;2.72;;;;;;;;;;4957722;28;20085;-68
2023/06/17 03:25:23;;;;;;;7.72;2.40;;;;;;;;;;4957656;28;20097;-64
2023/06/17 03:27:50;;;;;;;6.38;2.60;;;;;;;;;;4941676;28;20042;-63
2023/06/17 03:30:17;;;;;;;4.63;2.20;;;;;;;;;;4958126;28;20043;-64
2023/06/17 03:32:44;;;;;;;8.55;2.65;;;;;;;;;;4950613;28;20423;-63
2023/06/17 03:35:11;;;;;;;5.20;1.95;;;;;;;;;;4949710;28;20130;-64
2023/06/17 03:37:38;;;;;;;5.20;2.25;;;;;;;;;;4941832;28;20043;-67
2023/06/17 03:40:07;;;;;;;4.28;1.98;;;;;;;;;;4932989;28;20709;-66
2023/06/17 03:42:33;;;;;;;4.25;2.05;;;;;;;;;;4931707;28;20053;-66
2023/06/17 03:45:00;;;;;;;4.90;2.10;;;;;;;;;;4957977;28;22305;-65
2023/06/17 03:47:28;;;;;;;6.32;2.50;;;;;;;;;;4968856;28;20034;-65
2023/06/17 03:49:54;;;;;;;4.40;2.10;;;;;;;;;;4980197;28;20261;-64
2023/06/17 03:52:21;;;;;;;5.10;2.25;;;;;;;;;;4998571;28;20065;-65
2023/06/17 03:54:48;;;;;;;6.80;2.17;;;;;;;;;;4999818;28;20042;-64
2023/06/17 03:57:15;;;;;;;5.10;2.40;;;;;;;;;;4982308;28;20045;-64
2023/06/17 03:59:42;;;;;;;4.07;1.90;;;;;;;;;;4996502;28;20053;-65
2023/06/17 04:02:09;;;;;;;4.03;1.70;;;;;;;;;;4999632;28;20045;-65
2023/06/17 04:04:36;;;;;;;9.07;2.40;;;;;;;;;;4997688;28;20485;-65
2023/06/17 04:07:04;;;;;;;4.72;2.00;;;;;;;;;;4979917;28;20049;-66
2023/06/17 04:09:30;;;;;;;4.60;1.83;;;;;;;;;;4974034;28;20107;-68
2023/06/17 04:11:57;;;;;;;4.05;1.50;;;;;;;;;;4996919;28;20041;-64
2023/06/17 04:14:24;;;;;;;4.07;1.50;;;;;;;;;;4984493;28;20061;-64
2023/06/17 04:16:51;;;;;;;4.47;1.73;;;;;;;;;;4986461;28;20042;-65
2023/06/17 04:19:17;;;;;;;5.32;1.75;;;;;;;;;;4999765;28;20045;-66
2023/06/17 04:21:44;;;;;;;4.47;1.85;;;;;;;;;;4974307;28;20134;-63
2023/06/17 04:24:11;;;;;;;3.97;1.38;;;;;;;;;;4981321;28;20033;-63
2023/06/17 04:26:38;;;;;;;4.35;1.40;;;;;;;;;;4999455;28;20129;-62
2023/06/17 04:29:04;;;;;;;4.57;1.38;;;;;;;;;;4981659;28;20807;-63
2023/06/17 04:31:52;;;;;;;3.63;1.48;;;;;;;;;;4930684;28;20078;-63
2023/06/17 04:34:22;;;;;;;3.13;1.10;;;;;;;;;;4920964;28;20099;-64
2023/06/17 04:36:49;;;;;;;4.32;1.50;;;;;;;;;;4929807;28;20107;-62
2023/06/17 04:39:17;;;;;;;3.47;1.17;;;;;;;;;;4915490;28;20054;-63
2023/06/17 04:41:45;;;;;;;4.82;1.55;;;;;;;;;;4917906;28;20068;-63
2023/06/17 04:44:13;;;;;;;3.65;1.40;;;;;;;;;;4927329;28;20042;-63
2023/06/17 04:46:39;;;;;;;3.70;1.30;;;;;;;;;;4924899;28;20046;-64
2023/06/17 04:49:06;;;;;;;3.85;1.35;;;;;;;;;;4928165;28;20066;-66
2023/06/17 04:51:38;;;;;;;7.20;1.42;;;;;;;;;;4924540;28;20059;-64
2023/06/17 04:54:07;;;;;;;4.47;1.60;;;;;;;;;;4928204;28;20076;-64
2023/06/17 04:56:34;;;;;;;2.88;1.02;;;;;;;;;;4917137;28;20136;-64
2023/06/17 04:59:01;;;;;;;3.53;1.15;;;;;;;;;;4919432;28;20672;-66
2023/06/17 05:01:28;;;;;;;5.95;1.33;;;;;;;;;;4926620;28;20067;-64
2023/06/17 05:03:54;;;;;;;3.47;1.30;;;;;;;;;;4978259;28;21536;-64
2023/06/17 05:06:21;;;;;;;3.65;1.40;;;;;;;;;;4982537;28;20085;-65
2023/06/17 05:08:48;;;;;;;6.60;1.60;;;;;;;;;;4998846;28;20038;-65
2023/06/17 05:11:14;;;;;;;4.32;1.20;;;;;;;;;;4983695;28;20065;-66
2023/06/17 05:13:41;;;;;;;3.65;1.30;;;;;;;;;;5019296;28;20038;-63
2023/06/17 05:16:08;;;;;;;4.45;1.30;;;;;;;;;;5017083;28;20105;-61
2023/06/17 05:18:34;;;;;;;3.03;1.30;;;;;;;;;;5013888;28;20033;-63
2023/06/17 05:21:04;;;;;;;4.03;1.40;;;;;;;;;;4994290;28;20033;-64
2023/06/17 05:23:30;;;;;;;3.65;1.40;;;;;;;;;;5006609;28;20073;-62
2023/06/17 05:25:57;;;;;;;4.68;1.30;;;;;;;;;;5018489;28;20155;-65
2023/06/17 05:28:24;;;;;;;4.97;1.55;;;;;;;;;;5005036;28;20041;-63
2023/06/17 05:30:50;;;;;;;3.20;1.23;;;;;;;;;;5000594;28;20045;-63
2023/06/17 05:33:17;;;;;;;3.05;1.25;;;;;;;;;;5019350;28;20087;-64
2023/06/17 05:35:43;;;;;;;4.13;1.60;;;;;;;;;;5008584;28;20062;-63
2023/06/17 05:38:10;;;;;;;5.85;1.60;;;;;;;;;;5010660;28;20069;-64
2023/06/17 05:40:37;;;;;;;4.47;1.40;;;;;;;;;;5009711;28;20045;-64
2023/06/17 05:43:03;;;;;;;4.25;1.50;;;;;;;;;;4999805;28;20045;-64
2023/06/17 05:45:30;;;;;;;4.18;1.38;;;;;;;;;;5018998;28;20082;-64
2023/06/17 05:47:56;;;;;;;4.35;1.80;;;;;;;;;;5019276;28;20469;-63
2023/06/17 05:50:23;;;;;;;4.30;1.42;;;;;;;;;;5018034;28;20061;-63
2023/06/17 05:52:50;;;;;;;4.03;1.40;;;;;;;;;;5000252;28;20056;-63
2023/06/17 05:55:16;;;;;;;4.90;1.40;;;;;;;;;;5019064;28;20050;-64
2023/06/17 05:57:43;;;;;;;3.63;1.30;;;;;;;;;;5019293;28;20621;-64
2023/06/17 06:00:10;;;;;;;5.00;1.40;;;;;;;;;;5020026;28;20851;-63
2023/06/17 06:02:37;;;;;;;6.18;1.13;;;;;;;;;;5019943;28;20522;-62
2023/06/17 06:05:04;;;;;;;4.82;1.48;;;;;;;;;;5018483;28;20057;-61
2023/06/17 06:07:30;;;;;;;4.68;1.50;;;;;;;;;;5019025;28;20025;-63
2023/06/17 06:09:57;;;;;;;5.35;1.40;;;;;;;;;;5019975;28;20091;-63
2023/06/17 06:12:24;;;;;;;5.82;1.40;;;;;;;;;;5018053;28;20049;-63
2023/06/17 06:14:51;;;;;;;3.50;1.35;;;;;;;;;;5020592;28;20675;-62
2023/06/17 06:17:18;;;;;;;3.85;1.40;;;;;;;;;;5019597;28;20127;-63
2023/06/17 06:19:44;;;;;;;3.05;1.25;;;;;;;;;;5017866;28;20041;-62
2023/06/17 06:22:11;;;;;;;5.18;1.30;;;;;;;;;;5019910;28;20052;-62
2023/06/17 06:24:37;;;;;;;5.25;1.38;;;;;;;;;;5016757;28;20048;-63
2023/06/17 06:27:04;;;;;;;3.50;1.38;;;;;;;;;;5001656;28;20034;-63
2023/06/17 06:29:31;;;;;;;3.53;1.25;;;;;;;;;;5014371;28;20058;-60
2023/06/17 06:31:57;;;;;;;3.30;1.20;;;;;;;;;;5018049;28;20386;-63
2023/06/17 06:34:24;;;;;;;4.30;1.30;;;;;;;;;;5019567;28;20265;-62
2023/06/17 06:36:51;;;;;;;5.55;1.02;;;;;;;;;;5021338;28;20516;-62
2023/06/17 06:39:17;;;;;;;3.65;1.15;;;;;;;;;;5020158;28;20056;-62
2023/06/17 06:41:44;;;;;;;3.33;1.30;;;;;;;;;;5019373;28;20039;-63
2023/06/17 06:44:11;;;;;;;3.88;1.10;;;;;;;;;;5019957;28;20044;-62
2023/06/17 06:46:38;;;;;;;3.20;1.13;;;;;;;;;;5017455;28;20065;-63
2023/06/17 06:49:05;;;;;;;3.15;1.17;;;;;;;;;;5015856;28;20045;-63
2023/06/17 06:51:31;;;;;;;3.33;1.10;;;;;;;;;;5015446;28;20103;-61
2023/06/17 06:53:58;;;;;;;3.67;1.30;;;;;;;;;;5018024;28;20453;-63
2023/06/17 06:56:25;;;;;;;3.38;1.13;;;;;;;;;;5017091;28;20048;-61
2023/06/17 06:58:52;;;;;;;3.00;1.10;;;;;;;;;;4999901;28;21378;-63
2023/06/17 07:01:18;;;;;;;3.47;1.10;;;;;;;;;;5017061;28;20033;-64
2023/06/17 07:03:45;;;;;;;3.10;1.02;;;;;;;;;;5016007;28;20053;-64
2023/06/17 07:06:12;;;;;;;3.28;1.30;;;;;;;;;;5018741;28;20045;-63
2023/06/17 07:08:38;;;;;;;3.00;1.13;;;;;;;;;;5017089;28;20187;-61
2023/06/17 07:11:05;;;;;;;3.90;1.23;;;;;;;;;;5020032;28;20068;-63
2023/06/17 07:13:32;;;;;;;4.70;1.20;;;;;;;;;;4980330;28;20041;-63
2023/06/17 07:15:59;;;;;;;4.47;1.38;;;;;;;;;;4998328;28;20806;-63
2023/06/17 07:18:25;;;;;;;4.38;1.40;;;;;;;;;;4996543;28;20037;-63
2023/06/17 07:20:52;;;;;;;3.63;1.20;;;;;;;;;;4995555;28;20065;-63
2023/06/17 07:23:19;;;;;;;4.13;1.63;;;;;;;;;;4995277;28;20132;-63
2023/06/17 07:25:46;;;;;;;4.03;1.25;;;;;;;;;;4995641;28;20099;-63
2023/06/17 07:28:12;;;;;;;4.22;1.45;;;;;;;;;;4995631;28;20042;-63
2023/06/17 07:30:39;;;;;;;3.53;1.23;;;;;;;;;;4964936;28;20058;-62
2023/06/17 07:33:06;;;;;;;4.20;1.20;;;;;;;;;;4995302;28;20682;-63
2023/06/17 07:35:33;;;;;;;3.95;1.35;;;;;;;;;;4993967;28;20046;-63
2023/06/17 07:37:59;;;;;;;3.10;1.23;;;;;;;;;;4993496;28;20093;-64
2023/06/17 07:40:26;;;;;;;3.53;1.00;;;;;;;;;;4992755;28;20068;-64
2023/06/17 07:42:53;;;;;;;3.05;1.02;;;;;;;;;;4985296;28;20113;-63
2023/06/17 07:45:19;;;;;;;3.63;1.20;;;;;;;;;;4979026;28;20041;-63
2023/06/17 07:47:46;;;;;;;3.05;1.00;;;;;;;;;;4977540;28;20053;-63
2023/06/17 07:50:13;;;;;;;3.03;0.90;;;;;;;;;;4993115;28;20046;-62
2023/06/17 07:52:39;;;;;;;2.47;0.80;;;;;;;;;;4993135;28;20037;-63
2023/06/17 07:55:08;;;;;;;3.20;1.10;;;;;;;;;;4977569;28;20136;-63
2023/06/17 07:57:35;;;;;;;2.83;1.10;;;;;;;;;;4994802;28;20054;-63
2023/06/17 08:00:01;;;;;;;3.33;1.20;;;;;;;;;;4981046;28;20042;-63
2023/06/17 08:02:28;;;;;;;3.88;1.27;;;;;;;;;;4996580;28;20038;-63
2023/06/17 08:04:55;;;;;;;4.10;1.35;;;;;;;;;;4980088;28;20038;-62
2023/06/17 08:07:21;;;;;;;3.70;1.38;;;;;;;;;;4986429;28;20131;-63
2023/06/17 08:09:48;;;;;;;5.43;1.75;;;;;;;;;;4993651;28;20097;-63
2023/06/17 08:12:15;;;;;;;5.32;1.88;;;;;;;;;;5005981;28;20049;-61
2023/06/17 08:14:41;;;;;;;5.03;2.03;;;;;;;;;;5014888;28;20056;-62
2023/06/17 08:17:08;;;;;;;5.95;2.55;;;;;;;;;;5018218;28;20088;-62
2023/06/17 08:19:35;;;;;;;7.30;3.10;;;;;;;;;;5016575;28;20056;-63
2023/06/17 08:22:01;;;;;;;7.05;3.22;;;;;;;;;;5017710;28;20053;-62
2023/06/17 08:24:28;;;;;;;7.53;3.30;;;;;;;;;;5006372;28;20042;-63
2023/06/17 08:26:55;;;;;;;7.45;3.92;;;;;;;;;;5016001;28;20069;-63
2023/06/17 08:29:22;;;;;;;9.82;3.85;;;;;;;;;;4997103;28;20049;-66
2023/06/17 08:31:49;;;;;;;10.43;4.50;;;;;;;;;;5015135;28;20044;-63
2023/06/17 08:34:16;;;;;;;9.80;4.60;;;;;;;;;;5015121;28;20053;-61
2023/06/17 08:36:45;;;;;;;13.15;4.72;;;;;;;;;;5014264;28;20211;-61
2023/06/17 08:39:12;;;;;;;9.23;4.63;;;;;;;;;;5014823;28;20053;-64
2023/06/17 08:41:39;;;;;;;9.43;4.68;;;;;;;;;;4995794;28;20063;-62
2023/06/17 08:44:06;;;;;;;9.23;4.53;;;;;;;;;;5014827;28;20140;-63
2023/06/17 08:46:34;;;;;;;9.18;4.90;;;;;;;;;;4998620;28;20092;-64
2023/06/17 08:49:04;;;;;;;9.52;4.63;;;;;;;;;;4990248;28;20091;-64
2023/06/17 08:51:31;;;;;;;7.30;3.90;;;;;;;;;;5012313;28;20713;-62
2023/06/17 08:53:58;;;;;;;7.57;3.60;;;;;;;;;;5012698;28;20112;-63
2023/06/17 08:56:25;;;;;;;7.63;3.75;;;;;;;;;;5014059;28;20034;-63
2023/06/17 08:58:54;;;;;;;8.80;3.55;;;;;;;;;;5017165;28;20397;-63
2023/06/17 09:01:21;;;;;;;8.15;3.47;;;;;;;;;;4993324;28;20045;-61
2023/06/17 09:03:50;;;;;;;6.90;3.20;;;;;;;;;;4997618;28;20048;-61
2023/06/17 09:06:23;;;;;;;8.43;3.72;;;;;;;;;;4999041;28;20465;-62
2023/06/17 09:08:50;;;;;;;;;;;;;;;;;;5018620;28;20052;-62
2023/06/17 09:11:17;;;;;;;8.02;3.95;;;;;;;;;;5017496;28;19936;-63
2023/06/17 09:13:50;;;;;;;9.20;3.92;;;;;;;;;;4998016;28;20057;-62
2023/06/17 09:16:18;;;;;;;9.53;4.23;;;;;;;;;;4973825;28;20099;-61
2023/06/17 09:18:45;;;;;;;10.57;4.07;;;;;;;;;;4997450;28;22944;-61
2023/06/17 09:21:16;;;;;;;10.15;4.30;;;;;;;;;;4995732;28;21120;-63
2023/06/17 09:23:43;;;;;;;7.43;3.88;;;;;;;;;;4969577;28;20037;-62
2023/06/17 09:26:09;;;;;;;8.70;4.28;;;;;;;;;;4994156;28;20042;-63
2023/06/17 09:28:36;;;;;;;10.13;4.43;;;;;;;;;;4993940;28;20057;-61
2023/06/17 09:31:04;;;;;;;9.00;4.43;;;;;;;;;;4970794;28;20039;-62
2023/06/17 09:33:30;;;;;;;10.00;4.32;;;;;;;;;;4971749;28;20046;-64
2023/06/17 09:36:08;;;;;;;8.30;4.57;;;;;;;;;;4974812;28;20154;-63
2023/06/17 09:38:37;;;;;;;11.85;5.07;;;;;;;;;;4968444;28;20069;-61
2023/06/17 09:41:04;;;;;;;8.38;4.55;;;;;;;;;;4967056;28;20307;-63
2023/06/17 09:43:31;;;;;;;9.27;4.72;;;;;;;;;;4956847;28;20129;-61
2023/06/17 09:46:01;;;;;;;8.48;4.38;;;;;;;;;;4967504;28;20467;-61
2023/06/17 09:48:35;;;;;;;9.25;4.75;;;;;;;;;;4967173;28;20105;-64
2023/06/17 09:51:05;;;;;;;8.65;4.18;;;;;;;;;;4951472;28;20065;-61
2023/06/17 09:53:51;;;;;;;13.65;5.22;;;;;;;;;;4953739;28;20043;-61
2023/06/17 09:56:19;;;;;;;12.00;4.93;;;;;;;;;;4955082;28;20043;-63
2023/06/17 09:58:46;;;;;;;11.20;5.47;;;;;;;;;;4955380;28;20093;-62
2023/06/17 10:01:13;;;;;;;9.85;5.03;;;;;;;;;;4954769;28;20130;-63
2023/06/17 10:03:41;;;;;;;13.55;5.88;;;;;;;;;;4954011;28;20035;-62
2023/06/17 10:06:09;;;;;;;11.55;4.97;;;;;;;;;;4958401;28;20197;-62
2023/06/17 10:08:37;;;;;;;10.18;5.25;;;;;;;;;;4953285;28;20039;-63
2023/06/17 10:11:04;;;;;;;12.43;5.50;;;;;;;;;;4955500;28;20043;-62
2023/06/17 10:13:35;;;;;;;10.90;5.95;;;;;;;;;;4954347;28;20099;-62
2023/06/17 10:16:02;;;;;;;11.60;6.05;;;;;;;;;;4963484;28;20038;-60
2023/06/17 10:18:29;;;;;;;10.43;5.88;;;;;;;;;;4972451;28;20503;-61
2023/06/17 10:20:56;;;;;;;10.95;5.95;;;;;;;;;;4969187;28;20035;-61
2023/06/17 10:23:24;;;;;;;10.10;5.60;;;;;;;;;;4970875;28;20598;-61
2023/06/17 10:25:50;;;;;;;10.68;5.80;;;;;;;;;;4972082;28;20042;-60
2023/06/17 10:28:17;;;;;;;12.77;5.72;;;;;;;;;;4968950;28;20058;-60
2023/06/17 10:30:46;;;;;;;10.43;5.70;;;;;;;;;;4974416;28;20054;-60
2023/06/17 10:33:12;;;;;;;10.52;5.95;;;;;;;;;;4995593;28;20068;-62
2023/06/17 10:35:39;;;;;;;12.82;5.93;;;;;;;;;;4964372;28;20690;-62
2023/06/17 10:38:08;;;;;;;12.80;6.28;;;;;;;;;;4989448;28;20042;-61
2023/06/17 10:40:39;;;;;;;13.43;6.22;;;;;;;;;;4999685;28;20038;-63
2023/06/17 10:43:06;;;;;;;11.73;6.03;;;;;;;;;;4997037;28;20057;-63
2023/06/17 10:45:34;;;;;;;11.88;5.85;;;;;;;;;;4978772;28;20048;-63
2023/06/17 10:48:19;;;;;;;15.13;5.85;;;;;;;;;;4968450;28;20043;-63
2023/06/17 10:50:46;;;;;;;13.85;5.90;;;;;;;;;;4985315;28;20123;-64
2023/06/17 10:53:16;;;;;;;11.13;6.10;;;;;;;;;;4998350;28;20552;-62
2023/06/17 10:55:43;;;;;;;11.68;5.95;;;;;;;;;;4998099;28;20053;-60
2023/06/17 10:58:10;;;;;;;10.70;5.80;;;;;;;;;;4971904;28;20132;-62
2023/06/17 11:00:37;;;;;;;11.40;5.75;;;;;;;;;;4997117;28;20041;-61
2023/06/17 11:03:06;;;;;;;11.00;5.72;;;;;;;;;;4977981;28;20034;-60
2023/06/17 11:05:36;;;;;;;10.90;6.03;;;;;;;;;;4994300;28;20139;-62
2023/06/17 11:08:04;;;;;;;11.43;5.63;;;;;;;;;;4975868;28;20774;-59
2023/06/17 11:10:31;;;;;;;14.18;6.05;;;;;;;;;;4997500;28;20104;-61
2023/06/17 11:12:57;;;;;;;13.68;6.03;;;;;;;;;;5010018;28;20556;-61
2023/06/17 11:15:24;;;;;;;10.85;6.05;;;;;;;;;;5016504;28;20038;-65
2023/06/17 11:18:03;;;;;;;11.85;5.82;;;;;;;;;;5017084;28;21792;-62
2023/06/17 11:20:39;;;;;;;10.73;5.40;;;;;;;;;;5015870;28;20052;-61
2023/06/17 11:23:06;;;;;;;14.52;6.28;;;;;;;;;;5013821;28;20144;-62
2023/06/17 11:25:32;;;;;;;10.02;6.05;;;;;;;;;;5013616;28;20041;-62
2023/06/17 11:27:59;;;;;;;11.25;6.10;;;;;;;;;;5013559;28;20434;-60
2023/06/17 11:30:26;;;;;;;8.88;5.10;;;;;;;;;;4998051;28;20057;-62
2023/06/17 11:32:53;;;;;;;13.20;6.40;;;;;;;;;;5014047;28;20068;-61
2023/06/17 11:35:20;;;;;;;11.18;5.97;;;;;;;;;;5016123;28;20046;-60
2023/06/17 11:37:47;;;;;;;9.93;5.40;;;;;;;;;;4991003;28;20041;-62
2023/06/17 11:40:15;;;;;;;12.60;5.75;;;;;;;;;;5013320;28;20041;-63
2023/06/17 11:42:42;;;;;;;10.95;5.93;;;;;;;;;;5016736;28;20058;-62
2023/06/17 11:45:09;;;;;;;11.93;5.63;;;;;;;;;;5015693;28;20137;-63
2023/06/17 11:47:36;;;;;;;9.85;5.65;;;;;;;;;;5015675;28;20140;-63
2023/06/17 11:50:06;;;;;;;9.65;5.35;;;;;;;;;;5014616;28;20076;-62
2023/06/17 11:52:33;;;;;;;17.35;6.28;;;;;;;;;;5013412;28;20494;-62
2023/06/17 11:55:00;;;;;;;10.60;5.57;;;;;;;;;;5010930;28;20041;-60
2023/06/17 11:57:27;;;;;;;9.98;5.53;;;;;;;;;;5012603;28;20214;-60
2023/06/17 12:00:00;;;;;;;10.95;5.72;;;;;;;;;;5013195;28;20052;-60
2023/06/17 12:02:27;;;;;;;12.18;5.72;;;;;;;;;;4992686;28;20066;-62
2023/06/17 12:04:55;;;;;;;11.88;5.75;;;;;;;;;;5014283;28;20047;-60
2023/06/17 12:07:21;;;;;;;14.25;5.50;;;;;;;;;;4995775;28;20452;-61
2023/06/17 12:09:54;;;;;;;12.63;5.57;;;;;;;;;;5014161;28;20160;-61
2023/06/17 12:12:32;;;;;;;14.57;5.80;;;;;;;;;;5016862;28;20728;-62
2023/06/17 12:15:01;;;;;;;11.57;5.80;;;;;;;;;;5016327;28;20124;-62
2023/06/17 12:17:28;;;;;;;15.75;5.90;;;;;;;;;;5017106;28;20069;-61
2023/06/17 12:20:01;;;;;;;12.30;5.57;;;;;;;;;;5000684;28;20057;-60
2023/06/17 12:22:27;;;;;;;10.55;5.75;;;;;;;;;;5018541;28;20824;-63
2023/06/17 12:24:54;;;;;;;11.68;5.72;;;;;;;;;;5012885;28;20037;-63
2023/06/17 12:27:28;;;;;;;18.63;5.60;;;;;;;;;;4993676;28;20033;-63
2023/06/17 12:29:56;;;;;;;11.98;5.28;;;;;;;;;;5005954;28;20106;-60
2023/06/17 12:32:22;;;;;;;11.48;5.55;;;;;;;;;;5008457;28;20047;-60
2023/06/17 12:34:49;;;;;;;13.43;5.90;;;;;;;;;;4992823;28;21790;-62
2023/06/17 12:37:18;;;;;;;9.68;4.97;;;;;;;;;;5008876;28;20033;-59
2023/06/17 12:39:46;;;;;;;8.60;4.82;;;;;;;;;;5007941;28;20080;-59
2023/06/17 12:42:12;;;;;;;10.65;5.78;;;;;;;;;;5010083;28;20037;-62
2023/06/17 12:44:39;;;;;;;8.82;4.72;;;;;;;;;;5009737;28;20037;-59
2023/06/17 12:47:06;;;;;;;11.07;5.55;;;;;;;;;;5011049;28;20041;-60
2023/06/17 12:49:33;;;;;;;10.00;4.80;;;;;;;;;;5009508;28;20053;-64
2023/06/17 12:52:00;;;;;;;12.25;4.78;;;;;;;;;;5010308;28;20522;-63
2023/06/17 12:54:27;;;;;;;10.93;4.93;;;;;;;;;;4994975;28;20045;-63
2023/06/17 12:56:54;;;;;;;12.80;5.07;;;;;;;;;;5021227;28;20289;-63
2023/06/17 12:59:21;;;;;;;9.93;4.82;;;;;;;;;;5018325;28;20045;-62
2023/06/17 13:01:48;;;;;;;8.65;4.68;;;;;;;;;;5016682;28;20121;-62
2023/06/17 13:04:14;;;;;;;11.25;4.82;;;;;;;;;;5014014;28;20045;-63
2023/06/17 13:06:41;;;;;;;12.05;4.45;;;;;;;;;;5014298;28;20087;-62
2023/06/17 13:09:08;;;;;;;9.27;3.92;;;;;;;;;;5011671;28;20060;-63
2023/06/17 13:11:36;;;;;;;9.52;4.07;;;;;;;;;;5015139;28;20037;-63
2023/06/17 13:14:03;;;;;;;7.75;3.90;;;;;;;;;;5001234;28;20148;-63
2023/06/17 13:16:29;;;;;;;8.40;3.80;;;;;;;;;;5014076;28;20037;-63
2023/06/17 13:18:56;;;;;;;11.88;4.10;;;;;;;;;;5016044;28;20099;-63
2023/06/17 13:21:23;;;;;;;7.30;3.55;;;;;;;;;;5017764;28;20037;-65
2023/06/17 13:23:50;;;;;;;8.82;3.97;;;;;;;;;;4999869;28;20037;-63
2023/06/17 13:26:20;;;;;;;7.55;3.58;;;;;;;;;;5008529;28;20149;-62
2023/06/17 13:28:48;;;;;;;10.07;3.83;;;;;;;;;;5006676;28;20041;-64
2023/06/17 13:31:14;;;;;;;8.88;4.18;;;;;;;;;;5014952;28;20133;-64
2023/06/17 13:33:41;;;;;;;7.45;3.70;;;;;;;;;;4996639;28;25085;-64
2023/06/17 13:36:08;;;;;;;10.85;3.67;;;;;;;;;;5014643;28;20080;-67
2023/06/17 13:38:34;;;;;;;7.22;3.20;;;;;;;;;;5014346;28;20178;-64
2023/06/17 13:41:01;;;;;;;6.72;3.08;;;;;;;;;;5012303;28;20079;-63
2023/06/17 13:43:28;;;;;;;9.60;3.40;;;;;;;;;;5013666;28;20277;-63
2023/06/17 13:45:55;;;;;;;6.45;2.90;;;;;;;;;;5013450;28;20048;-64
2023/06/17 13:48:21;;;;;;;6.40;3.13;;;;;;;;;;4996860;28;20037;-64
2023/06/17 13:50:48;;;;;;;7.32;3.20;;;;;;;;;;5015483;28;20050;-64
2023/06/17 13:53:15;;;;;;;5.45;2.60;;;;;;;;;;4997656;28;20502;-64
2023/06/17 13:55:42;;;;;;;7.30;3.53;;;;;;;;;;5010523;28;20491;-59
2023/06/17 13:58:08;;;;;;;5.10;2.33;;;;;;;;;;5007974;28;20037;-62
2023/06/17 14:00:35;;;;;;;10.27;2.53;;;;;;;;;;5005494;28;20036;-60
2023/06/17 14:03:02;;;;;;;5.13;2.00;;;;;;;;;;4989884;28;20048;-62
2023/06/17 14:05:29;;;;;;;7.25;2.50;;;;;;;;;;4990039;28;20091;-63
2023/06/17 14:07:55;;;;;;;5.55;1.83;;;;;;;;;;5005829;28;20149;-63
2023/06/17 14:10:24;;;;;;;5.32;2.33;;;;;;;;;;5005702;28;20104;-60
2023/06/17 14:12:53;;;;;;;4.65;1.90;;;;;;;;;;5007421;28;20096;-62
2023/06/17 14:15:20;;;;;;;5.43;2.17;;;;;;;;;;5007376;28;20029;-62
2023/06/17 14:17:47;;;;;;;3.72;1.67;;;;;;;;;;5008517;28;20115;-61
2023/06/17 14:20:13;;;;;;;5.38;2.00;;;;;;;;;;5006710;28;20272;-62
2023/06/17 14:22:40;;;;;;;7.90;3.80;;;;;;;;;;5006876;28;20617;-62
2023/06/17 14:25:07;;;;;;;5.82;2.55;;;;;;;;;;5006370;28;20107;-62
2023/06/17 14:27:37;;;;;;;4.80;2.30;;;;;;;;;;5010183;28;22087;-63
2023/06/17 14:30:04;;;;;;;7.80;2.35;;;;;;;;;;5009892;28;20072;-61
2023/06/17 14:32:31;;;;;;;4.35;2.03;;;;;;;;;;5011912;28;20063;-62
2023/06/17 14:34:58;;;;;;;4.90;1.95;;;;;;;;;;5012581;28;20037;-61
2023/06/17 14:37:25;;;;;;;3.75;1.48;;;;;;;;;;4994530;28;20419;-62
2023/06/17 14:39:52;;;;;;;3.80;1.67;;;;;;;;;;4993627;28;20064;-63